Time;durP1;ratioP1;P1;durP2;ratioP2;P2;SDS_P1;SDS_P2;PMS_P1;PMS_P2;Temp;Humidity;BMP_temperature;BMP_pressure;BME280_temperature;BME280_humidity;BME280_pressure;Samples;Min_cycle;Max_cycle;Signal;HPM_P1;HPM_P2
2024/02/08 00:03:53;;;;;;;0.32;0.32;;;18.70;44.80;;;;;;8428656;28;20438;-55
2024/02/08 00:07:54;;;;;;;0.43;0.30;;;18.70;44.70;;;;;;8428357;28;20024;-55
2024/02/08 00:11:55;;;;;;;0.30;0.30;;;18.70;44.70;;;;;;8428313;28;20062;-56
2024/02/08 00:15:56;;;;;;;0.40;0.40;;;18.70;44.80;;;;;;8428175;28;20370;-56
2024/02/08 00:19:56;;;;;;;0.30;0.30;;;18.70;44.70;;;;;;8428183;28;20044;-56
2024/02/08 00:23:57;;;;;;;0.38;0.38;;;18.70;44.70;;;;;;8427901;28;20058;-56
2024/02/08 00:27:58;;;;;;;0.20;0.20;;;18.70;44.70;;;;;;8427729;28;20122;-56
2024/02/08 00:31:59;;;;;;;0.35;0.30;;;18.70;44.70;;;;;;8427766;28;20032;-56
2024/02/08 00:36:03;;;;;;;0.32;0.32;;;18.70;44.80;;;;;;8427825;28;20120;-56
2024/02/08 00:40:06;;;;;;;0.30;0.30;;;18.70;44.80;;;;;;8426693;28;20108;-54
2024/02/08 00:44:07;;;;;;;0.30;0.30;;;18.70;44.80;;;;;;8427219;28;20032;-56
2024/02/08 00:48:08;;;;;;;0.30;0.30;;;18.60;44.70;;;;;;8427646;28;20139;-56
2024/02/08 00:52:09;;;;;;;0.38;0.32;;;18.70;45.30;;;;;;8426968;28;20285;-56
2024/02/08 00:56:13;;;;;;;0.57;0.32;;;18.70;44.80;;;;;;8426945;28;20509;-54
2024/02/08 01:00:14;;;;;;;1.35;0.40;;;18.70;44.80;;;;;;8427115;28;20111;-54
2024/02/08 01:04:14;;;;;;;0.50;0.30;;;18.60;44.70;;;;;;8426693;28;20061;-56
2024/02/08 01:08:15;;;;;;;0.30;0.30;;;18.60;44.70;;;;;;8426755;28;20028;-56
2024/02/08 01:12:18;;;;;;;0.43;0.43;;;18.60;44.70;;;;;;8426412;28;20435;-56
2024/02/08 01:16:19;;;;;;;0.30;0.30;;;18.70;44.80;;;;;;8426519;28;20028;-56
2024/02/08 01:20:22;;;;;;;0.30;0.30;;;18.60;44.70;;;;;;8427723;28;20051;-55
2024/02/08 01:24:24;;;;;;;0.30;0.30;;;18.60;44.70;;;;;;8426249;28;20047;-54
2024/02/08 01:28:27;;;;;;;;;;;18.60;44.70;;;;;;8426498;28;20067;-55
2024/02/08 01:32:28;;;;;;;0.20;0.20;;;18.60;44.70;;;;;;8408591;28;19912;-55
2024/02/08 01:36:30;;;;;;;0.30;0.30;;;18.60;44.70;;;;;;8426416;28;20064;-56
2024/02/08 01:40:31;;;;;;;0.30;0.30;;;18.60;44.70;;;;;;8425967;28;20115;-56
2024/02/08 01:44:31;;;;;;;0.40;0.40;;;18.60;44.70;;;;;;8426077;28;20035;-55
2024/02/08 01:48:32;;;;;;;0.30;0.30;;;18.60;44.80;;;;;;8426215;28;20043;-54
2024/02/08 01:52:33;;;;;;;0.20;0.20;;;18.60;44.70;;;;;;8428417;28;20097;-56
2024/02/08 01:56:34;;;;;;;0.28;0.28;;;18.60;44.80;;;;;;8432560;28;20040;-53
2024/02/08 02:00:36;;;;;;;0.30;0.30;;;18.60;44.70;;;;;;8432707;28;20406;-55
2024/02/08 02:04:39;;;;;;;0.20;0.20;;;18.60;44.80;;;;;;8432299;28;20106;-55
2024/02/08 02:08:52;;;;;;;0.80;0.30;;;18.60;44.80;;;;;;8432786;28;20039;-55
2024/02/08 02:12:53;;;;;;;0.40;0.30;;;18.60;44.80;;;;;;8432034;28;20126;-55
2024/02/08 02:17:03;;;;;;;0.20;0.20;;;18.60;44.80;;;;;;8431988;28;20059;-55
2024/02/08 02:21:04;;;;;;;0.60;0.50;;;18.60;44.80;;;;;;8431829;28;20115;-56
2024/02/08 02:25:05;;;;;;;0.60;0.28;;;18.60;44.80;;;;;;8431843;28;20077;-55
2024/02/08 02:29:06;;;;;;;0.30;0.30;;;18.60;44.80;;;;;;8431370;28;20028;-56
2024/02/08 02:33:07;;;;;;;0.40;0.40;;;18.60;44.80;;;;;;8431482;28;20039;-55
2024/02/08 02:37:07;;;;;;;0.22;0.22;;;18.60;44.80;;;;;;8431559;28;20032;-55
2024/02/08 02:41:08;;;;;;;0.30;0.30;;;18.60;44.80;;;;;;8431279;28;20043;-55
2024/02/08 02:45:13;;;;;;;0.20;0.20;;;18.60;44.80;;;;;;8412903;28;20028;-56
2024/02/08 02:49:13;;;;;;;0.20;0.20;;;18.60;44.80;;;;;;8431113;28;20478;-55
2024/02/08 02:53:17;;;;;;;0.40;0.40;;;18.60;44.80;;;;;;8430739;28;20431;-55
2024/02/08 02:57:18;;;;;;;0.30;0.30;;;18.60;44.80;;;;;;8430660;28;20110;-55
2024/02/08 03:01:19;;;;;;;0.30;0.30;;;18.60;44.80;;;;;;8430518;28;20059;-56
2024/02/08 03:05:23;;;;;;;0.38;0.38;;;18.60;44.80;;;;;;8429258;28;20036;-56
2024/02/08 03:09:27;;;;;;;0.25;0.25;;;18.60;44.80;;;;;;8430455;28;20029;-56
2024/02/08 03:13:28;;;;;;;0.20;0.20;;;18.50;44.70;;;;;;8430083;28;20189;-57
2024/02/08 03:17:32;;;;;;;0.30;0.30;;;18.60;44.80;;;;;;8430110;28;20052;-56
2024/02/08 03:21:35;;;;;;;0.15;0.15;;;18.60;44.80;;;;;;8430104;28;20032;-55
2024/02/08 03:25:40;;;;;;;0.20;0.20;;;18.60;44.80;;;;;;8411800;28;20028;-56
2024/02/08 03:29:42;;;;;;;0.30;0.30;;;18.60;44.80;;;;;;8429976;28;20059;-56
2024/02/08 03:33:45;;;;;;;0.30;0.30;;;18.60;44.80;;;;;;8429602;28;20028;-55
2024/02/08 03:37:48;;;;;;;0.40;0.30;;;18.60;44.80;;;;;;8429531;28;20043;-56
2024/02/08 03:41:49;;;;;;;0.32;0.32;;;18.60;44.80;;;;;;8429104;28;20045;-55
2024/02/08 03:45:50;;;;;;;0.30;0.20;;;18.60;44.80;;;;;;8429193;28;20485;-56
2024/02/08 03:49:51;;;;;;;0.40;0.40;;;18.50;44.80;;;;;;8429178;28;20032;-56
2024/02/08 03:53:52;;;;;;;0.30;0.30;;;18.60;44.80;;;;;;8428982;28;20028;-55
2024/02/08 03:57:56;;;;;;;0.35;0.35;;;18.60;44.70;;;;;;8428567;28;20036;-56
2024/02/08 04:02:03;;;;;;;0.32;0.20;;;18.50;44.70;;;;;;8428732;28;20077;-56
2024/02/08 04:06:26;;;;;;;0.20;0.20;;;18.60;44.80;;;;;;8428832;28;20107;-55
2024/02/08 04:53:45;;;;;;;0.30;0.30;;;18.50;44.80;;;;;;8427260;28;20052;-55
2024/02/08 04:57:47;;;;;;;0.40;0.40;;;18.50;44.80;;;;;;8426963;28;20040;-55
2024/02/08 05:01:49;;;;;;;0.30;0.30;;;18.50;44.70;;;;;;8426795;28;20043;-55
2024/02/08 05:05:50;;;;;;;0.25;0.25;;;18.50;44.70;;;;;;8426925;28;20032;-55
2024/02/08 05:09:51;;;;;;;0.20;0.20;;;18.50;44.70;;;;;;8426897;28;20081;-55
2024/02/08 05:13:52;;;;;;;0.20;0.20;;;18.50;44.80;;;;;;8426259;28;20052;-56
2024/02/08 05:17:54;;;;;;;0.13;0.13;;;18.50;44.70;;;;;;8426655;28;20036;-55
2024/02/08 05:22:02;;;;;;;0.35;0.30;;;18.60;44.70;;;;;;8408687;28;20111;-55
2024/02/08 05:26:03;;;;;;;0.30;0.30;;;18.60;44.80;;;;;;8425550;28;20057;-55
2024/02/08 05:30:05;;;;;;;0.25;0.25;;;18.60;44.60;;;;;;8426471;28;20054;-54
2024/02/08 05:34:07;;;;;;;0.17;0.13;;;18.70;44.50;;;;;;8408297;28;20056;-53
2024/02/08 05:38:08;;;;;;;0.20;0.20;;;18.70;44.40;;;;;;8426310;28;20035;-53
2024/02/08 05:42:09;;;;;;;0.40;0.40;;;18.80;44.40;;;;;;8426105;28;20052;-54
2024/02/08 05:46:09;;;;;;;0.28;0.28;;;18.80;44.30;;;;;;8426078;28;20032;-53
2024/02/08 05:50:21;;;;;;;0.32;0.32;;;18.80;44.30;;;;;;8426044;28;20082;-55
2024/02/08 05:54:31;;;;;;;0.30;0.30;;;18.80;44.30;;;;;;8426131;28;20039;-54
2024/02/08 05:58:33;;;;;;;0.30;0.30;;;18.80;44.20;;;;;;8426048;28;20090;-54
2024/02/08 06:02:35;;;;;;;0.40;0.40;;;18.80;44.30;;;;;;8426291;28;20114;-54
2024/02/08 06:06:41;;;;;;;0.25;0.25;;;18.80;44.30;;;;;;8425655;28;20506;-55
2024/02/08 06:10:42;;;;;;;0.32;0.22;;;18.80;44.30;;;;;;8425627;28;20059;-54
2024/02/08 06:14:43;;;;;;;0.32;0.30;;;18.80;44.30;;;;;;8425902;28;20032;-54
2024/02/08 06:18:45;;;;;;;0.22;0.22;;;18.80;44.20;;;;;;8425649;28;20036;-53
2024/02/08 06:22:48;;;;;;;;;;;18.80;44.30;;;;;;8426109;28;20048;-54
2024/02/08 06:26:55;;;;;;;0.20;0.20;;;18.80;44.30;;;;;;8425197;28;19955;-53
2024/02/08 06:30:58;;;;;;;0.38;0.30;;;18.80;44.30;;;;;;8425313;28;20031;-54
2024/02/08 06:35:25;;;;;;;0.15;0.15;;;18.80;44.20;;;;;;8425638;28;20044;-54
2024/02/08 06:39:30;;;;;;;0.22;0.20;;;18.80;44.20;;;;;;8429181;28;20035;-56
2024/02/08 06:43:56;;;;;;;0.30;0.30;;;18.80;44.20;;;;;;8431287;28;20477;-57
2024/02/08 06:47:56;;;;;;;0.20;0.20;;;18.80;44.20;;;;;;8430968;28;20036;-56
2024/02/08 07:39:46;;;;;;;0.25;0.20;;;18.80;44.20;;;;;;8405931;28;20040;-54
2024/02/08 07:43:56;;;;;;;0.30;0.20;;;18.80;44.20;;;;;;8429437;28;20390;-56
2024/02/08 07:47:58;;;;;;;0.20;0.20;;;18.80;44.20;;;;;;8411122;28;20028;-55
2024/02/08 07:51:59;;;;;;;0.20;0.20;;;18.80;44.20;;;;;;8410348;28;20111;-56
2024/02/08 07:56:29;;;;;;;0.30;0.30;;;18.80;44.20;;;;;;8428808;28;20450;-56
2024/02/08 08:04:51;;;;;;;0.85;0.43;;;18.80;44.20;;;;;;8428247;28;20035;-55
2024/02/08 08:08:57;;;;;;;0.30;0.30;;;18.80;44.30;;;;;;8429043;28;20040;-56
2024/02/08 08:13:06;;;;;;;0.30;0.30;;;18.80;44.30;;;;;;8428234;28;20497;-56
2024/02/08 08:21:25;;;;;;;0.30;0.30;;;18.70;44.30;;;;;;8427881;28;20473;-55
2024/02/08 08:25:29;;;;;;;0.30;0.30;;;18.70;44.30;;;;;;8427896;28;20036;-56
2024/02/08 08:29:42;;;;;;;0.20;0.20;;;18.70;44.40;;;;;;8410033;28;20097;-55
2024/02/08 08:35:15;;;;;;;0.30;0.30;;;18.70;44.40;;;;;;8409538;28;20488;-55
2024/02/08 08:42:24;;;;;;;0.15;0.15;;;18.70;44.40;;;;;;8427442;28;20028;-54
2024/02/08 08:46:24;;;;;;;0.20;0.20;;;18.80;44.40;;;;;;8427496;28;20495;-55
2024/02/08 08:50:30;;;;;;;0.55;0.28;;;18.80;44.30;;;;;;8427327;28;20032;-55
2024/02/08 08:54:36;;;;;;;0.25;0.25;;;18.80;44.20;;;;;;8427006;28;20064;-55
2024/02/08 08:58:40;;;;;;;0.22;0.22;;;18.80;44.20;;;;;;8426600;28;20604;-56
2024/02/08 09:02:42;;;;;;;0.20;0.20;;;18.90;44.20;;;;;;8426034;28;20525;-56
2024/02/08 09:06:47;;;;;;;0.93;0.40;;;18.90;44.20;;;;;;8408643;28;20028;-56
2024/02/08 09:10:49;;;;;;;0.20;0.20;;;18.90;44.20;;;;;;8409201;28;20056;-56
2024/02/08 09:14:53;;;;;;;0.30;0.30;;;18.90;44.20;;;;;;8408709;28;20081;-55
2024/02/08 09:23:12;;;;;;;0.43;0.30;;;18.90;44.10;;;;;;8426609;28;20366;-56
2024/02/08 09:27:15;;;;;;;0.28;0.28;;;18.90;44.10;;;;;;8426283;28;20111;-54
2024/02/08 09:31:17;;;;;;;0.30;0.30;;;18.90;44.10;;;;;;8408818;28;20032;-55
2024/02/08 09:35:18;;;;;;;0.32;0.32;;;18.90;44.20;;;;;;8426830;28;20047;-55
2024/02/08 09:39:19;;;;;;;0.30;0.30;;;18.90;44.10;;;;;;8408075;28;20036;-56
2024/02/08 09:43:24;;;;;;;1.38;0.40;;;18.90;44.10;;;;;;8408102;28;20031;-56
2024/02/08 09:47:31;;;;;;;0.40;0.40;;;18.90;44.10;;;;;;8425735;28;20032;-56
2024/02/08 09:51:35;;;;;;;0.68;0.32;;;18.90;44.10;;;;;;8425845;28;20462;-56
2024/02/08 09:55:37;;;;;;;0.20;0.20;;;18.90;44.10;;;;;;8426249;28;20024;-55
2024/02/08 10:04:05;;;;;;;0.33;0.33;;;18.90;44.10;;;;;;8377610;28;20110;-56
2024/02/08 10:08:09;;;;;;;0.22;0.22;;;18.90;44.10;;;;;;8392550;28;20028;-56
2024/02/08 10:12:20;;;;;;;0.28;0.25;;;18.80;44.10;;;;;;8392315;28;20422;-56
2024/02/08 10:16:42;;;;;;;0.55;0.40;;;18.90;44.20;;;;;;8398689;28;20037;-56
2024/02/08 10:20:45;;;;;;;0.20;0.20;;;18.90;44.20;;;;;;8399060;28;20039;-56
2024/02/08 10:28:53;;;;;;;0.40;0.38;;;18.80;44.10;;;;;;8425189;28;20035;-57
2024/02/08 10:32:54;;;;;;;0.22;0.20;;;18.80;44.20;;;;;;8431601;28;20032;-56
2024/02/08 10:36:59;;;;;;;0.30;0.30;;;18.80;44.20;;;;;;8431603;28;20036;-56
2024/02/08 10:41:02;;;;;;;0.20;0.20;;;18.80;44.20;;;;;;8431596;28;20075;-56
2024/02/08 10:45:07;;;;;;;0.40;0.40;;;18.80;44.20;;;;;;8413903;28;20623;-55
2024/02/08 10:49:09;;;;;;;0.20;0.20;;;18.80;44.20;;;;;;8412982;28;20052;-56
2024/02/08 10:53:18;;;;;;;0.40;0.30;;;18.80;44.20;;;;;;8431297;28;20040;-56
2024/02/08 11:06:00;;;;;;;0.30;0.30;;;18.80;44.20;;;;;;8430607;28;20059;-55
2024/02/08 11:10:01;;;;;;;0.30;0.30;;;18.80;44.20;;;;;;8430723;28;20028;-56
2024/02/08 11:14:08;;;;;;;0.32;0.32;;;18.80;44.20;;;;;;8430116;28;20115;-57
2024/02/08 11:18:33;;;;;;;0.20;0.20;;;18.80;44.20;;;;;;8430347;28;20032;-54
2024/02/08 11:22:40;;;;;;;0.35;0.35;;;18.80;44.20;;;;;;8429425;28;20039;-55
2024/02/08 11:26:56;;;;;;;0.30;0.25;;;18.80;44.20;;;;;;8410707;28;20068;-54
2024/02/08 11:30:56;;;;;;;0.20;0.20;;;18.80;44.30;;;;;;8429882;28;20031;-54
2024/02/08 11:35:00;;;;;;;0.30;0.30;;;18.80;44.30;;;;;;8411919;28;20069;-54
2024/02/08 11:39:21;;;;;;;0.65;0.40;;;18.80;44.30;;;;;;8429590;28;20348;-55
2024/02/08 11:43:23;;;;;;;0.20;0.20;;;18.80;44.30;;;;;;8428957;28;20099;-54
2024/02/08 11:47:24;;;;;;;0.40;0.40;;;18.80;44.30;;;;;;8429422;28;20024;-54
2024/02/08 11:51:27;;;;;;;0.30;0.30;;;18.80;44.30;;;;;;8429233;28;20119;-54
2024/02/08 11:55:28;;;;;;;0.30;0.30;;;18.80;44.30;;;;;;8429253;28;20032;-54
2024/02/08 11:59:29;;;;;;;0.30;0.30;;;18.80;44.30;;;;;;8428680;28;20042;-55
2024/02/08 12:03:31;;;;;;;0.40;0.30;;;18.80;44.30;;;;;;8428710;28;20032;-55
2024/02/08 12:07:31;;;;;;;0.30;0.30;;;18.80;44.30;;;;;;8428862;28;20657;-54
2024/02/08 12:11:35;;;;;;;0.30;0.30;;;18.80;44.30;;;;;;8410505;28;20559;-54
2024/02/08 12:15:36;;;;;;;0.30;0.30;;;18.80;44.30;;;;;;8428354;28;20067;-55
2024/02/08 12:19:37;;;;;;;0.40;0.30;;;18.80;44.30;;;;;;8428379;28;20033;-53
2024/02/08 12:23:40;;;;;;;0.30;0.30;;;18.80;44.30;;;;;;8428329;28;20035;-55
2024/02/08 12:27:51;;;;;;;0.20;0.20;;;18.80;44.20;;;;;;8427553;28;20024;-54
2024/02/08 12:31:55;;;;;;;0.93;0.40;;;18.80;44.30;;;;;;8428064;28;20040;-54
2024/02/08 12:35:59;;;;;;;0.28;0.28;;;18.80;44.30;;;;;;8427434;28;20385;-54
2024/02/08 12:40:04;;;;;;;0.30;0.30;;;18.80;44.20;;;;;;8427862;28;20451;-53
2024/02/08 12:44:04;;;;;;;0.30;0.30;;;18.80;44.20;;;;;;8427182;28;20032;-54
2024/02/08 12:48:07;;;;;;;0.77;0.32;;;18.80;44.30;;;;;;8427370;28;20072;-54
2024/02/08 12:52:10;;;;;;;0.47;0.30;;;18.80;44.30;;;;;;8427489;28;20036;-55
2024/02/08 12:56:11;;;;;;;0.35;0.32;;;18.80;44.20;;;;;;8408955;28;20038;-54
2024/02/08 13:00:13;;;;;;;0.30;0.30;;;18.80;44.20;;;;;;8427024;28;20497;-53
2024/02/08 13:04:17;;;;;;;0.35;0.30;;;18.80;44.20;;;;;;8427340;28;20059;-54
2024/02/08 13:08:22;;;;;;;0.50;0.30;;;18.80;44.20;;;;;;8426890;28;20043;-54
2024/02/08 13:12:22;;;;;;;0.65;0.32;;;18.80;44.30;;;;;;8426596;28;20060;-54
2024/02/08 13:16:23;;;;;;;0.30;0.30;;;18.80;44.30;;;;;;8408680;28;20043;-53
2024/02/08 13:20:24;;;;;;;0.40;0.40;;;18.80;44.30;;;;;;8426671;28;20348;-55
2024/02/08 13:24:25;;;;;;;0.38;0.38;;;18.80;44.30;;;;;;8426607;28;20028;-54
2024/02/08 13:28:27;;;;;;;0.30;0.28;;;18.80;44.30;;;;;;8426334;28;20393;-55
2024/02/08 13:32:29;;;;;;;0.40;0.40;;;18.80;44.30;;;;;;8426352;28;20389;-54
2024/02/08 13:36:30;;;;;;;0.40;0.40;;;18.80;44.30;;;;;;8408488;28;20116;-52
2024/02/08 13:40:30;;;;;;;0.30;0.30;;;18.80;44.30;;;;;;8426326;28;20093;-54
2024/02/08 13:44:33;;;;;;;0.22;0.20;;;18.80;44.30;;;;;;8426211;28;20647;-54
2024/02/08 13:48:34;;;;;;;0.30;0.30;;;18.80;44.90;;;;;;8428774;28;20036;-54
2024/02/08 13:52:35;;;;;;;0.70;0.30;;;18.80;44.30;;;;;;8433021;28;20059;-54
2024/02/08 13:56:36;;;;;;;0.45;0.45;;;18.80;44.30;;;;;;8432680;28;20066;-54
2024/02/08 14:00:36;;;;;;;;;;;18.80;44.30;;;;;;8433247;28;20398;-54
2024/02/08 14:04:38;;;;;;;0.20;0.20;;;18.80;44.30;;;;;;8432495;28;19931;-55
2024/02/08 14:08:46;;;;;;;0.20;0.20;;;18.80;44.40;;;;;;8432714;28;20036;-54
2024/02/08 14:12:48;;;;;;;1.05;0.40;;;18.80;44.30;;;;;;8432130;28;20044;-52
2024/02/08 14:16:55;;;;;;;0.20;0.20;;;18.80;44.30;;;;;;8432409;28;20044;-53
2024/02/08 14:20:58;;;;;;;0.63;0.38;;;18.80;44.30;;;;;;8432065;28;20036;-55
2024/02/08 14:24:59;;;;;;;0.55;0.20;;;18.80;44.30;;;;;;8432107;28;20093;-54
2024/02/08 14:29:00;;;;;;;0.28;0.28;;;18.70;44.30;;;;;;8413633;28;20505;-54
2024/02/08 14:33:01;;;;;;;0.40;0.40;;;18.80;44.30;;;;;;8431739;28;20064;-54
2024/02/08 14:37:06;;;;;;;0.45;0.30;;;18.80;44.40;;;;;;8431733;28;20028;-54
2024/02/08 14:41:25;;;;;;;0.47;0.47;;;18.80;44.40;;;;;;8431233;28;20085;-54
2024/02/08 14:45:35;;;;;;;0.38;0.30;;;18.80;44.30;;;;;;8431234;28;20032;-54
2024/02/08 14:49:54;;;;;;;0.20;0.20;;;18.70;44.30;;;;;;8431294;28;20047;-55
2024/02/08 14:53:58;;;;;;;1.35;0.50;;;18.80;44.30;;;;;;8430940;28;20024;-56
2024/02/08 14:57:58;;;;;;;0.63;0.30;;;18.80;44.30;;;;;;8430725;28;20154;-56
2024/02/08 15:02:12;;;;;;;0.30;0.30;;;18.80;44.30;;;;;;8429393;28;20036;-56
2024/02/08 15:06:38;;;;;;;0.20;0.20;;;18.70;44.30;;;;;;8430397;28;20329;-55
2024/02/08 15:10:43;;;;;;;0.40;0.40;;;18.80;44.30;;;;;;8415903;28;20048;-56
2024/02/08 15:14:45;;;;;;;0.57;0.30;;;18.70;44.30;;;;;;8430455;28;20039;-56
2024/02/08 15:18:48;;;;;;;0.45;0.30;;;18.80;44.30;;;;;;8430722;28;20036;-55
2024/02/08 15:23:09;;;;;;;0.20;0.20;;;18.70;44.30;;;;;;8430113;28;20028;-56
2024/02/08 15:27:18;;;;;;;0.70;0.40;;;18.80;44.40;;;;;;8429664;28;20054;-56
2024/02/08 15:31:39;;;;;;;0.30;0.30;;;18.80;44.30;;;;;;8429572;28;20673;-56
2024/02/08 15:35:51;;;;;;;0.20;0.20;;;18.70;44.30;;;;;;8429731;28;20092;-56
2024/02/08 15:43:53;;;;;;;0.65;0.30;;;18.80;44.30;;;;;;8429434;28;20032;-55
2024/02/08 15:48:03;;;;;;;0.20;0.20;;;18.70;44.30;;;;;;8429229;28;20064;-56
2024/02/08 15:52:04;;;;;;;0.93;0.30;;;18.80;44.40;;;;;;8429157;28;20494;-56
2024/02/08 15:56:08;;;;;;;0.43;0.30;;;18.70;44.30;;;;;;8428928;28;20757;-54
2024/02/08 16:00:33;;;;;;;0.20;0.20;;;18.80;44.40;;;;;;8429135;28;20036;-55
2024/02/08 16:04:49;;;;;;;0.17;0.17;;;18.70;44.30;;;;;;8428744;28;20028;-55
2024/02/08 16:08:56;;;;;;;0.28;0.28;;;18.80;44.40;;;;;;8413321;28;20028;-56
2024/02/08 16:13:06;;;;;;;0.60;0.22;;;18.80;44.30;;;;;;8427928;28;20566;-55
2024/02/08 16:21:30;;;;;;;0.73;0.20;;;18.80;44.40;;;;;;8428046;28;20064;-54
2024/02/08 16:29:56;;;;;;;0.50;0.40;;;18.70;44.30;;;;;;8394600;28;20032;-55
2024/02/08 16:34:07;;;;;;;0.38;0.22;;;18.70;44.30;;;;;;8376172;28;20036;-56
2024/02/08 16:38:09;;;;;;;0.20;0.20;;;18.80;44.40;;;;;;8393998;28;20067;-56
2024/02/08 16:42:23;;;;;;;0.28;0.20;;;18.70;44.30;;;;;;8394021;28;20089;-56
2024/02/08 16:46:35;;;;;;;0.57;0.40;;;18.70;44.30;;;;;;8393928;28;20059;-55
2024/02/08 16:50:45;;;;;;;0.30;0.30;;;18.70;44.30;;;;;;8393575;28;20032;-56
2024/02/08 16:54:59;;;;;;;0.40;0.22;;;18.70;44.30;;;;;;8393748;28;20028;-55
2024/02/08 16:59:00;;;;;;;3.10;0.30;;;18.70;44.30;;;;;;8421364;28;20088;-56
2024/02/08 17:03:04;;;;;;;;;;;18.70;44.40;;;;;;8427727;28;20493;-56
2024/02/08 17:07:10;;;;;;;0.35;0.35;;;18.70;44.40;;;;;;8426605;28;19912;-55
2024/02/08 17:11:15;;;;;;;0.43;0.40;;;18.70;44.40;;;;;;8426818;28;20084;-56
2024/02/08 17:15:28;;;;;;;0.30;0.30;;;18.70;44.40;;;;;;8426822;28;20401;-55
2024/02/08 17:19:40;;;;;;;0.20;0.20;;;18.70;44.50;;;;;;8426827;28;20081;-56
2024/02/08 17:23:53;;;;;;;;;;;18.70;44.40;;;;;;8426211;28;20036;-56
2024/02/08 17:32:07;;;;;;;0.98;0.30;;;18.70;44.40;;;;;;8418032;28;20103;-56
2024/02/08 17:36:13;;;;;;;0.43;0.40;;;18.70;44.40;;;;;;8426317;28;20024;-55
2024/02/08 17:40:16;;;;;;;0.32;0.32;;;18.70;44.50;;;;;;8426317;28;20557;-55
2024/02/08 17:44:17;;;;;;;0.20;0.20;;;18.70;44.50;;;;;;8426206;28;20047;-54
2024/02/08 17:48:20;;;;;;;0.40;0.40;;;18.70;44.50;;;;;;8426144;28;20493;-55
2024/02/08 17:52:23;;;;;;;0.30;0.30;;;18.70;44.50;;;;;;8426075;28;20482;-56
2024/02/08 17:56:26;;;;;;;0.82;0.30;;;18.70;44.50;;;;;;8425605;28;20093;-55
2024/02/08 18:00:27;;;;;;;0.17;0.17;;;18.70;44.50;;;;;;8408333;28;20032;-55
2024/02/08 18:04:35;;;;;;;0.20;0.20;;;18.70;44.50;;;;;;8425973;28;20028;-56
2024/02/08 18:08:38;;;;;;;0.30;0.30;;;18.70;44.50;;;;;;8425401;28;20271;-55
2024/02/08 18:12:42;;;;;;;0.45;0.30;;;18.70;44.50;;;;;;8425796;28;20060;-56
2024/02/08 18:16:44;;;;;;;0.32;0.30;;;18.70;44.60;;;;;;8425615;28;20440;-56
2024/02/08 18:20:44;;;;;;;0.30;0.30;;;18.70;44.50;;;;;;8425810;28;20115;-55
2024/02/08 18:24:49;;;;;;;0.57;0.32;;;18.70;44.50;;;;;;8425849;28;20050;-54
2024/02/08 18:28:50;;;;;;;0.30;0.30;;;18.70;44.50;;;;;;8425440;28;20481;-54
2024/02/08 18:32:53;;;;;;;0.50;0.30;;;18.70;44.50;;;;;;8425598;28;20177;-54
2024/02/08 18:36:56;;;;;;;0.50;0.30;;;18.70;44.40;;;;;;8431500;28;20043;-53
2024/02/08 18:41:01;;;;;;;3.03;0.40;;;18.80;44.40;;;;;;8431111;28;20039;-55
2024/02/08 18:45:06;;;;;;;0.82;0.32;;;18.80;44.30;;;;;;8431591;28;20040;-54
2024/02/08 18:49:08;;;;;;;0.47;0.40;;;18.80;44.30;;;;;;8413689;28;20027;-54
2024/02/08 18:53:09;;;;;;;0.45;0.35;;;18.80;44.30;;;;;;8412987;28;20495;-54
2024/02/08 18:57:10;;;;;;;0.60;0.40;;;18.80;44.30;;;;;;8431113;28;20248;-54
2024/02/08 19:01:13;;;;;;;0.32;0.32;;;18.80;44.30;;;;;;8430988;28;20512;-54
2024/02/08 19:05:15;;;;;;;0.30;0.30;;;18.80;44.30;;;;;;8430918;28;20432;-54
2024/02/08 19:09:19;;;;;;;0.40;0.40;;;18.80;44.30;;;;;;8430989;28;20028;-53
2024/02/08 19:13:27;;;;;;;0.30;0.30;;;18.80;44.30;;;;;;8430300;28;20055;-54
2024/02/08 19:17:30;;;;;;;0.22;0.22;;;18.80;44.30;;;;;;8430584;28;20032;-54
2024/02/08 19:21:31;;;;;;;0.40;0.40;;;18.80;44.40;;;;;;8430345;28;20074;-55
2024/02/08 19:25:35;;;;;;;0.30;0.30;;;18.80;44.40;;;;;;8430199;28;20036;-53
2024/02/08 19:29:36;;;;;;;0.82;0.30;;;18.80;44.30;;;;;;8430272;28;20035;-55
2024/02/08 19:33:37;;;;;;;0.73;0.57;;;18.80;44.30;;;;;;8430001;28;20119;-56
2024/02/08 19:37:38;;;;;;;;;;;18.80;44.30;;;;;;8430175;28;20089;-56
2024/02/08 19:41:39;;;;;;;0.30;0.30;;;18.80;44.30;;;;;;8429321;28;20341;-56
2024/02/08 19:45:42;;;;;;;0.90;0.30;;;18.80;44.30;;;;;;8428622;28;20036;-55
2024/02/08 19:49:44;;;;;;;0.77;0.30;;;18.80;44.30;;;;;;8429417;28;20485;-56
2024/02/08 19:53:49;;;;;;;0.77;0.38;;;18.80;44.30;;;;;;8429633;28;20074;-56
2024/02/08 19:57:52;;;;;;;0.45;0.30;;;18.80;44.30;;;;;;8428836;28;20046;-56
2024/02/08 20:01:54;;;;;;;0.55;0.38;;;18.80;44.30;;;;;;8428957;28;20469;-56
2024/02/08 20:05:55;;;;;;;0.40;0.30;;;18.80;44.30;;;;;;8428717;28;20032;-56
2024/02/08 20:09:56;;;;;;;0.40;0.38;;;18.80;44.40;;;;;;8429773;28;20469;-56
2024/02/08 20:14:06;;;;;;;0.20;0.20;;;18.80;44.40;;;;;;8428241;28;20059;-56
2024/02/08 20:18:07;;;;;;;0.40;0.30;;;18.80;44.40;;;;;;8428372;28;20043;-55
2024/02/08 20:22:11;;;;;;;0.40;0.30;;;18.80;44.30;;;;;;8428619;28;20040;-56
2024/02/08 20:26:12;;;;;;;0.28;0.28;;;18.80;44.20;;;;;;8427911;28;20074;-56
2024/02/08 20:30:21;;;;;;;0.30;0.30;;;18.80;44.80;;;;;;8428127;28;20501;-55
2024/02/08 20:34:22;;;;;;;0.30;0.30;;;18.80;44.20;;;;;;8428194;28;20103;-56
2024/02/08 20:38:26;;;;;;;0.40;0.38;;;18.80;44.30;;;;;;8427789;28;20044;-56
2024/02/08 20:42:28;;;;;;;1.13;0.40;;;18.80;44.30;;;;;;8427312;28;20385;-55
2024/02/08 20:46:30;;;;;;;0.43;0.28;;;18.80;44.40;;;;;;8427103;28;20028;-54
2024/02/08 20:50:34;;;;;;;0.30;0.30;;;18.80;44.40;;;;;;8427388;28;20158;-57
2024/02/08 20:54:37;;;;;;;0.40;0.40;;;18.80;44.30;;;;;;8427330;28;20354;-56
2024/02/08 20:58:40;;;;;;;0.52;0.50;;;18.80;44.30;;;;;;8426975;28;20089;-55
2024/02/08 21:02:40;;;;;;;0.35;0.35;;;18.80;44.30;;;;;;8427223;28;20552;-56
2024/02/08 21:06:42;;;;;;;0.60;0.60;;;18.80;44.40;;;;;;8408848;28;20448;-56
2024/02/08 21:10:52;;;;;;;0.38;0.38;;;18.80;44.30;;;;;;8408566;28;20052;-56
2024/02/08 21:14:52;;;;;;;0.30;0.30;;;18.80;44.30;;;;;;8427467;28;20036;-56
2024/02/08 21:18:53;;;;;;;0.38;0.30;;;18.80;44.30;;;;;;8426741;28;20111;-56
2024/02/08 21:22:54;;;;;;;0.45;0.30;;;18.80;44.30;;;;;;8426546;28;20028;-55
2024/02/08 21:26:56;;;;;;;;;;;18.80;44.30;;;;;;8426929;28;20473;-56
2024/02/08 21:30:56;;;;;;;0.52;0.50;;;18.80;44.30;;;;;;8426429;28;20000;-56
2024/02/08 21:34:57;;;;;;;0.30;0.30;;;18.80;44.30;;;;;;8426411;28;20028;-56
2024/02/08 21:38:58;;;;;;;0.52;0.40;;;18.80;44.30;;;;;;8426304;28;20034;-54
2024/02/08 21:42:58;;;;;;;0.20;0.20;;;18.80;44.30;;;;;;8425931;28;20028;-56
2024/02/08 21:47:00;;;;;;;0.30;0.30;;;18.80;44.20;;;;;;8426024;28;20440;-56
2024/02/08 21:51:04;;;;;;;0.47;0.47;;;18.80;44.30;;;;;;8426228;28;20036;-55
2024/02/08 21:55:06;;;;;;;0.55;0.30;;;18.80;44.30;;;;;;8426173;28;20111;-56
2024/02/08 21:59:07;;;;;;;0.63;0.30;;;18.90;44.80;;;;;;8425650;28;20115;-56
2024/02/08 22:03:08;;;;;;;0.60;0.30;;;18.80;44.20;;;;;;8426458;28;20481;-55
2024/02/08 22:07:09;;;;;;;0.30;0.30;;;18.90;44.30;;;;;;8425717;28;20032;-55
2024/02/08 22:11:12;;;;;;;0.35;0.30;;;18.90;44.20;;;;;;8412672;28;20222;-56
2024/02/08 22:15:14;;;;;;;0.40;0.35;;;18.80;44.70;;;;;;8432477;28;20036;-55
2024/02/08 22:19:14;;;;;;;0.30;0.30;;;18.80;44.20;;;;;;8432123;28;20035;-56
2024/02/08 22:23:15;;;;;;;0.20;0.20;;;18.80;44.20;;;;;;8380898;28;20040;-55
2024/02/08 22:27:18;;;;;;;0.30;0.30;;;18.80;44.30;;;;;;8431602;28;20481;-56
2024/02/08 22:31:19;;;;;;;0.30;0.30;;;18.80;44.30;;;;;;8431606;28;20059;-56
2024/02/08 22:35:20;;;;;;;;;;;18.80;44.30;;;;;;8432420;28;20390;-55
2024/02/08 22:39:23;;;;;;;0.30;0.30;;;18.80;44.40;;;;;;8431496;28;19995;-55
2024/02/08 22:43:24;;;;;;;0.40;0.40;;;18.80;44.40;;;;;;8431345;28;20111;-56
2024/02/08 22:47:25;;;;;;;0.20;0.20;;;18.70;44.40;;;;;;8431426;28;20024;-55
2024/02/08 22:51:25;;;;;;;0.43;0.43;;;18.70;44.40;;;;;;8430932;28;20111;-56
2024/02/08 22:55:28;;;;;;;0.30;0.30;;;18.70;44.50;;;;;;8431082;28;20032;-55
2024/02/08 22:59:30;;;;;;;0.40;0.40;;;18.70;44.50;;;;;;8431822;28;20028;-56
2024/02/08 23:03:31;;;;;;;0.40;0.40;;;18.70;44.50;;;;;;8430965;28;20530;-56
2024/02/08 23:07:31;;;;;;;0.30;0.25;;;18.70;44.50;;;;;;8430701;28;20121;-56
2024/02/08 23:11:36;;;;;;;0.40;0.30;;;18.70;44.50;;;;;;8430597;28;20113;-56
2024/02/08 23:15:39;;;;;;;0.43;0.20;;;18.70;44.50;;;;;;8430295;28;20035;-54
2024/02/08 23:19:43;;;;;;;0.40;0.40;;;18.70;44.60;;;;;;8429693;28;20424;-55
2024/02/08 23:23:45;;;;;;;1.00;0.22;;;18.70;44.60;;;;;;8430326;28;20039;-54
2024/02/08 23:27:49;;;;;;;0.45;0.45;;;18.60;44.60;;;;;;8430316;28;20107;-56
2024/02/08 23:31:51;;;;;;;0.35;0.35;;;18.60;44.60;;;;;;8429982;28;20036;-57
2024/02/08 23:35:51;;;;;;;0.30;0.30;;;18.60;44.60;;;;;;8411744;28;20036;-55